Pagrindinis puslapis
METAR-TAF:

METAR-TAF

Oro uostai :

Varšuvos Šopeno oro uostas

Varšuva, Lenkija

platuma: 52-10N, ilguma: 020-58E, Aukštis: 106 m

Dabartinis oras

Ataskaita buvo paskelbta 13 minutes, ne 23:00 UTC
Vėjas 9 kt iš Šiaurės/Šiaurės Rytų
Temperatūra 11°C
Drėgmė 50%
Slėgis 1031 hPa
Matomumas 10 km arba daugiau
nėra debesų žemiau 1500 m ir nėra kamuolinių lietaus debesų

METAR: EPWA 072300Z 03009KT CAVOK 11/01 Q1031 NOSIG

Laikas: 01:13 (23:13 UTC)

Prognozė

Ataskaita buvo paskelbta 2 valandos ir 43 minutes, ne 20:30 UTC
Prognozė galioja nuo 07 metu 21 UTC su 08 metu 21 UTC
Vėjas 10 kt iš Vakarų/Pietvakarių
Matomumas 10 km arba daugiau
nėra debesų žemiau 1500 m ir nėra kamuolinių lietaus debesų
Tapsmas
nuo 07 metu 21 UTC su 07 metu 24 UTC
Vėjas 3 kt iš Šiaurės/Šiaurės Rytų
Tapsmas
nuo 08 metu 14 UTC su 08 metu 18 UTC
Vėjas 10 kt iš Pietryčių

TAF: EPWA 072030Z 0721/0821 24010KT CAVOK BECMG 0721/0724 03003KT BECMG 0814/0818 14010KT

Orai ataskaitas ir orų prognozės (METAR, TAF).

turimą stotys yra geltonos ir raudonos taškus žemėlapyje.

Perkelti pele per norėdami pamatyti stoties vardą.

Tada spustelėkite, norėdami matyti oro stebėjimo ir prognozės.

Norėdami pakeisti žemėlapį: spustelėkite ant žalios mygtukų su juodo kryžiaus žemyn,; žalią mygtuką su brūkšneliu, jei norite nutolinti; arba žalių rodyklių gretimoms žemėlapius.


METAR-TAF: